Time;durP1;ratioP1;P1;durP2;ratioP2;P2;SDS_P1;SDS_P2;PMS_P1;PMS_P2;Temp;Humidity;BMP_temperature;BMP_pressure;BME280_temperature;BME280_humidity;BME280_pressure;Samples;Min_cycle;Max_cycle;Signal;HPM_P1;HPM_P2
2022/01/12 00:01:29;;;;;;;5.13;2.60;;;-3.60;99.90;;;;;;5054231;28;20035;-75
2022/01/12 00:03:54;;;;;;;5.93;2.88;;;-3.60;99.90;;;;;;5054956;28;20496;-75
2022/01/12 00:06:20;;;;;;;4.53;2.45;;;-3.60;99.90;;;;;;5054529;28;20155;-74
2022/01/12 00:08:48;;;;;;;4.18;2.30;;;-3.60;99.90;;;;;;5054982;28;20056;-75
2022/01/12 00:11:14;;;;;;;6.22;2.90;;;-3.70;99.90;;;;;;5054412;28;20021;-74
2022/01/12 00:13:39;;;;;;;4.78;2.17;;;-3.60;99.90;;;;;;5054554;28;20512;-75
2022/01/12 00:16:06;;;;;;;5.75;2.60;;;-3.70;99.90;;;;;;5054457;28;20021;-75
2022/01/12 00:18:33;;;;;;;5.32;2.38;;;-3.70;99.90;;;;;;5055054;28;20067;-75
2022/01/12 00:20:59;;;;;;;5.53;2.78;;;-3.80;99.90;;;;;;5053267;28;20025;-75
2022/01/12 00:23:24;;;;;;;6.28;2.83;;;-3.80;99.90;;;;;;5054191;28;20074;-76
2022/01/12 00:26:04;;;;;;;7.70;2.85;;;-3.90;99.90;;;;;;5054438;28;20094;-75
2022/01/12 00:34:02;;;;;;;4.15;2.35;;;-4.10;99.90;;;;;;5054597;28;20040;-75
2022/01/12 00:36:29;;;;;;;4.57;2.50;;;-4.20;99.90;;;;;;5053244;28;20108;-75
2022/01/12 00:38:55;;;;;;;5.55;2.63;;;-4.20;99.90;;;;;;5054639;28;20032;-75
2022/01/12 00:41:21;;;;;;;5.65;2.53;;;-4.30;99.90;;;;;;5054047;28;20470;-75
2022/01/12 00:43:50;;;;;;;4.78;2.40;;;-4.40;99.90;;;;;;5053026;28;20477;-75
2022/01/12 00:46:17;;;;;;;6.05;2.33;;;-4.40;99.90;;;;;;5054541;28;20031;-75
2022/01/12 00:48:43;;;;;;;4.60;2.30;;;-4.50;99.90;;;;;;5054862;28;20422;-75
2022/01/12 00:51:11;;;;;;;7.28;2.67;;;-4.50;99.90;;;;;;5052794;28;20027;-75
2022/01/12 00:53:39;;;;;;;3.85;2.17;;;-4.50;99.90;;;;;;5054511;28;20492;-75
2022/01/12 00:56:06;;;;;;;5.00;2.00;;;-4.50;99.90;;;;;;5054248;28;20534;-75
2022/01/12 00:58:32;;;;;;;5.35;2.55;;;-4.50;99.90;;;;;;5052991;28;20029;-75
2022/01/12 01:00:58;;;;;;;4.75;2.17;;;-4.60;99.90;;;;;;5053018;28;20025;-75
2022/01/12 01:03:24;;;;;;;4.95;2.20;;;-4.60;99.90;;;;;;5054246;28;20028;-75
2022/01/12 01:05:49;;;;;;;3.83;2.00;;;-4.70;99.90;;;;;;5054493;28;20025;-76
2022/01/12 01:08:16;;;;;;;4.63;2.10;;;-4.70;99.90;;;;;;5054524;28;20025;-75
2022/01/12 01:13:08;;;;;;;4.40;2.25;;;-4.80;99.90;;;;;;5054550;28;20053;-75
2022/01/12 01:15:57;;;;;;;7.10;2.83;;;-4.80;99.90;;;;;;5053124;28;20104;-75
2022/01/12 01:26:39;;;;;;;6.35;2.35;;;-4.90;99.90;;;;;;5055813;28;20112;-75
2022/01/12 01:29:05;;;;;;;5.82;2.67;;;-5.00;99.90;;;;;;5056514;28;20041;-76
2022/01/12 01:31:33;;;;;;;5.88;2.72;;;-5.00;99.90;;;;;;5057513;28;20040;-75
2022/01/12 01:34:06;;;;;;;6.63;2.80;;;-5.10;99.90;;;;;;5057385;28;20013;-75
2022/01/12 01:36:34;;;;;;;7.82;2.47;;;-5.10;99.90;;;;;;5058034;28;20025;-75
2022/01/12 01:38:59;;;;;;;3.65;2.10;;;-5.20;99.90;;;;;;5056557;28;20052;-75
2022/01/12 01:41:25;;;;;;;5.15;2.50;;;-5.10;99.90;;;;;;5059128;28;20054;-75
2022/01/12 01:54:46;;;;;;;4.78;2.95;;;-5.30;99.90;;;;;;5058743;28;20553;-75
2022/01/12 01:57:12;;;;;;;5.20;2.70;;;-5.40;99.90;;;;;;5055440;28;20057;-75
2022/01/12 01:59:38;;;;;;;6.32;2.80;;;-5.50;99.90;;;;;;5055777;28;20021;-75
2022/01/12 02:02:04;;;;;;;5.28;2.67;;;-5.50;99.90;;;;;;5056847;28;20079;-75
2022/01/12 02:04:30;;;;;;;4.97;2.22;;;-5.60;99.90;;;;;;5057289;28;20029;-75
2022/01/12 02:06:58;;;;;;;4.93;2.38;;;-5.60;99.90;;;;;;5056453;28;20388;-75
2022/01/12 02:09:24;;;;;;;4.38;2.30;;;-5.60;99.90;;;;;;5054971;28;20029;-75
2022/01/12 02:11:52;;;;;;;4.53;2.22;;;-5.60;99.90;;;;;;5056205;28;20033;-75
2022/01/12 02:14:19;;;;;;;4.93;2.10;;;-5.60;99.90;;;;;;5055686;28;20075;-75
2022/01/12 02:16:56;;;;;;;4.07;2.08;;;-5.70;99.90;;;;;;5056464;28;20048;-75
2022/01/12 02:35:52;;;;;;;6.43;2.88;;;-5.80;99.90;;;;;;5061977;28;20075;-76
2022/01/12 02:41:04;;;;;;;5.82;3.10;;;-5.90;99.90;;;;;;5061187;28;20491;-75
2022/01/12 02:50:36;;;;;;;7.90;2.65;;;-6.00;99.90;;;;;;5061541;28;20021;-76
2022/01/12 02:54:29;;;;;;;4.97;2.15;;;-6.40;99.90;;;;;;5061708;28;20032;-76
2022/01/12 02:56:54;;;;;;;6.18;2.25;;;-6.50;99.90;;;;;;5061361;28;20033;-76
2022/01/12 02:59:20;;;;;;;6.72;2.00;;;-6.50;99.90;;;;;;5059560;28;20029;-76
2022/01/12 03:04:12;;;;;;;3.75;2.30;;;-6.40;99.90;;;;;;5061827;28;20028;-76
2022/01/12 03:06:40;;;;;;;5.10;2.03;;;-6.40;99.90;;;;;;5060314;28;20021;-76
2022/01/12 03:09:08;;;;;;;8.32;2.50;;;-6.40;99.90;;;;;;5060095;28;20603;-76
2022/01/12 03:11:36;;;;;;;9.75;3.90;;;-6.40;99.90;;;;;;5061833;28;20021;-76
2022/01/12 03:14:02;;;;;;;12.68;5.72;;;-6.50;99.90;;;;;;5062389;28;20021;-76
2022/01/12 03:16:28;;;;;;;16.38;6.20;;;-6.50;99.90;;;;;;5061950;28;20021;-76
2022/01/12 03:18:58;;;;;;;11.18;5.57;;;-6.50;99.90;;;;;;5062782;28;20108;-76
2022/01/12 03:21:31;;;;;;;6.95;3.55;;;-6.50;99.90;;;;;;5061122;28;20087;-76
2022/01/12 03:23:58;;;;;;;8.55;3.45;;;-6.60;99.90;;;;;;5059081;28;20033;-76
2022/01/12 03:26:28;;;;;;;7.93;3.67;;;-6.60;99.90;;;;;;5059480;28;20378;-76
2022/01/12 03:28:55;;;;;;;5.95;2.72;;;-6.70;99.90;;;;;;5060829;28;20036;-76
2022/01/12 03:31:24;;;;;;;9.18;2.78;;;-6.80;99.90;;;;;;5064161;28;20481;-76
2022/01/12 03:36:27;;;;;;;5.95;2.80;;;-7.00;99.90;;;;;;5062314;28;20457;-76
2022/01/12 03:38:55;;;;;;;5.93;2.65;;;-7.00;99.90;;;;;;5060544;28;20044;-77
2022/01/12 03:41:21;;;;;;;5.85;2.60;;;-7.10;99.90;;;;;;5062858;28;20021;-76
2022/01/12 03:43:48;;;;;;;7.25;3.05;;;-7.10;99.90;;;;;;5063831;28;20021;-76
2022/01/12 03:46:15;;;;;;;7.80;2.90;;;-7.10;99.90;;;;;;5063139;28;20025;-76
2022/01/12 03:48:41;;;;;;;7.70;2.88;;;-7.00;99.90;;;;;;5062601;28;20025;-76
2022/01/12 03:51:07;;;;;;;6.35;3.65;;;-7.00;99.90;;;;;;5062526;28;20021;-76
2022/01/12 03:53:33;;;;;;;6.65;3.45;;;-7.00;99.90;;;;;;5060193;28;20395;-76
2022/01/12 03:55:59;;;;;;;7.55;3.42;;;-7.00;99.90;;;;;;5062885;28;20025;-76
2022/01/12 03:58:24;;;;;;;11.60;3.65;;;-7.10;99.90;;;;;;5063736;28;20436;-77
2022/01/12 04:00:50;;;;;;;8.85;4.00;;;-7.20;99.90;;;;;;5061538;28;20032;-76
2022/01/12 04:03:16;;;;;;;15.02;3.92;;;-7.20;99.90;;;;;;5063437;28;20059;-76
2022/01/12 04:08:23;;;;;;;20.02;8.02;;;-7.30;99.90;;;;;;5063612;28;20115;-76
2022/01/12 04:11:00;;;;;;;22.60;8.32;;;-7.30;99.90;;;;;;5059319;28;20412;-76
2022/01/12 04:13:31;;;;;;;18.05;6.20;;;-7.40;99.90;;;;;;5059980;28;20085;-76
2022/01/12 04:16:02;;;;;;;13.75;5.00;;;-7.40;99.90;;;;;;5059322;28;20027;-76
2022/01/12 04:18:27;;;;;;;13.00;4.95;;;-7.40;99.90;;;;;;5059226;28;20035;-76
2022/01/12 04:20:53;;;;;;;13.43;4.53;;;-7.40;99.90;;;;;;5059815;28;20021;-76
2022/01/12 04:23:21;;;;;;;8.65;3.65;;;-7.50;99.90;;;;;;5057490;28;20040;-76
2022/01/12 04:25:52;;;;;;;8.27;3.33;;;-7.50;99.90;;;;;;5057200;28;20555;-76
2022/01/12 04:28:20;;;;;;;12.43;3.03;;;-7.60;99.90;;;;;;5057449;28;20120;-76
2022/01/12 04:30:46;;;;;;;9.95;3.30;;;-7.60;99.90;;;;;;5057436;28;20064;-76
2022/01/12 04:33:12;;;;;;;7.85;3.63;;;-7.60;99.90;;;;;;5058752;28;20422;-77
2022/01/12 04:35:46;;;;;;;9.05;4.20;;;-7.60;99.90;;;;;;5059159;28;20056;-76
2022/01/12 04:38:12;;;;;;;11.93;3.78;;;-7.70;99.90;;;;;;5057209;28;20049;-77
2022/01/12 04:40:38;;;;;;;8.98;3.40;;;-7.70;99.90;;;;;;5057477;28;20096;-76
2022/01/12 04:43:06;;;;;;;10.75;3.70;;;-7.70;99.90;;;;;;5060468;28;20044;-76
2022/01/12 04:45:39;;;;;;;13.48;3.78;;;-7.70;99.90;;;;;;5060349;28;20465;-74
2022/01/12 04:48:32;;;;;;;8.27;3.53;;;-7.70;99.90;;;;;;5054236;28;20205;-73
2022/01/12 04:50:56;;;;;;;9.20;4.25;;;-7.60;99.90;;;;;;5053255;28;20032;-73
2022/01/12 04:53:22;;;;;;;8.60;4.55;;;-7.60;99.90;;;;;;5053606;28;20111;-73
2022/01/12 04:55:50;;;;;;;14.05;5.30;;;-7.70;99.90;;;;;;5053642;28;20469;-73
2022/01/12 04:58:17;;;;;;;14.80;5.13;;;-7.70;99.90;;;;;;5053895;28;20033;-73
2022/01/12 05:00:45;;;;;;;9.93;4.53;;;-7.70;99.90;;;;;;5053771;28;20385;-73
2022/01/12 05:13:52;;;;;;;11.10;3.00;;;-8.10;99.90;;;;;;5053910;28;20440;-72
2022/01/12 05:16:20;;;;;;;8.80;3.05;;;-8.10;99.90;;;;;;5053624;28;20032;-72
2022/01/12 05:18:47;;;;;;;9.40;3.60;;;-8.10;99.90;;;;;;5053520;28;20037;-73
2022/01/12 05:21:15;;;;;;;8.50;3.25;;;-8.00;99.90;;;;;;5053903;28;20021;-73
2022/01/12 05:23:41;;;;;;;8.25;3.55;;;-8.00;99.90;;;;;;5053035;28;20466;-72
2022/01/12 05:26:07;;;;;;;14.00;5.63;;;-8.00;99.90;;;;;;5053308;28;20031;-72
2022/01/12 05:28:34;;;;;;;16.55;6.60;;;-8.10;99.90;;;;;;5053133;28;20028;-72
2022/01/12 05:31:01;;;;;;;14.55;7.00;;;-8.20;99.90;;;;;;5053224;28;20021;-73
2022/01/12 05:33:27;;;;;;;12.52;5.30;;;-8.30;99.90;;;;;;5053367;28;20049;-72
2022/01/12 05:35:55;;;;;;;8.23;3.88;;;-8.30;99.90;;;;;;5051849;28;20052;-72
2022/01/12 05:38:22;;;;;;;8.43;3.92;;;-8.30;99.90;;;;;;5053165;28;20390;-69
2022/01/12 05:40:52;;;;;;;9.73;3.85;;;-8.30;99.90;;;;;;5053090;28;20036;-69
2022/01/12 05:43:23;;;;;;;8.10;3.30;;;-8.30;99.90;;;;;;5053087;28;20370;-69
2022/01/12 05:45:49;;;;;;;11.35;3.88;;;-8.40;99.90;;;;;;5053466;28;20470;-69
2022/01/12 05:50:41;;;;;;;9.20;3.35;;;-8.90;99.90;;;;;;5053103;28;20025;-69
2022/01/12 05:53:08;;;;;;;6.68;2.90;;;-8.90;99.90;;;;;;5053326;28;20098;-69
2022/01/12 05:55:33;;;;;;;5.70;2.50;;;-9.00;99.90;;;;;;5053131;28;20025;-69
2022/01/12 05:57:59;;;;;;;9.35;3.38;;;-8.90;99.90;;;;;;5051966;28;20033;-70
2022/01/12 06:00:27;;;;;;;5.82;2.63;;;-8.80;99.90;;;;;;5053283;28;20393;-70
2022/01/12 06:02:53;;;;;;;12.40;4.75;;;-8.80;99.90;;;;;;5057610;28;20021;-70
2022/01/12 06:05:20;;;;;;;13.48;5.47;;;-8.80;99.90;;;;;;5057122;28;20025;-70
2022/01/12 06:07:48;;;;;;;18.35;6.38;;;-8.80;99.90;;;;;;5057257;28;20488;-70
2022/01/12 06:10:14;;;;;;;19.55;6.90;;;-8.70;99.90;;;;;;5056765;28;20064;-70
2022/01/12 06:12:40;;;;;;;15.02;5.50;;;-8.70;99.90;;;;;;5056630;28;20067;-70
2022/01/12 06:15:07;;;;;;;15.82;6.85;;;-8.60;99.90;;;;;;5056693;28;20024;-70
2022/01/12 06:17:33;;;;;;;12.93;4.30;;;-8.70;99.90;;;;;;5056510;28;20032;-70
2022/01/12 06:19:59;;;;;;;11.13;3.97;;;-8.80;99.90;;;;;;5056597;28;20028;-70
2022/01/12 06:22:24;;;;;;;12.68;4.40;;;-8.90;99.90;;;;;;5056352;28;20075;-70
2022/01/12 06:24:51;;;;;;;8.48;2.88;;;-8.90;99.90;;;;;;5056292;28;20090;-70
2022/01/12 06:27:20;;;;;;;6.72;3.00;;;-9.00;99.90;;;;;;5056272;28;20033;-70
2022/01/12 06:32:15;;;;;;;6.85;3.17;;;-8.90;99.90;;;;;;5056210;28;20060;-70
2022/01/12 06:34:40;;;;;;;9.50;3.67;;;-8.90;99.90;;;;;;5056186;28;20397;-70
2022/01/12 06:37:06;;;;;;;10.93;4.32;;;-9.00;99.90;;;;;;5056154;28;20029;-70
2022/01/12 06:39:33;;;;;;;12.77;5.32;;;-9.00;99.90;;;;;;5056658;28;20388;-70
2022/01/12 06:41:59;;;;;;;17.33;7.43;;;-8.90;99.90;;;;;;5055982;28;20163;-69
2022/01/12 06:44:28;;;;;;;17.13;7.80;;;-8.90;99.90;;;;;;5056028;28;20440;-69
2022/01/12 06:46:56;;;;;;;10.30;5.10;;;-8.80;99.90;;;;;;5056232;28;20025;-69
2022/01/12 06:49:23;;;;;;;13.93;4.72;;;-8.80;99.90;;;;;;5056110;28;20071;-69
2022/01/12 06:51:49;;;;;;;8.85;4.55;;;-8.90;99.90;;;;;;5055795;28;20021;-69
2022/01/12 06:54:16;;;;;;;12.45;4.00;;;-9.00;99.90;;;;;;5055906;28;20021;-69
2022/01/12 06:56:42;;;;;;;16.58;4.18;;;-9.10;99.90;;;;;;5055831;28;20017;-69
2022/01/12 06:59:09;;;;;;;12.85;5.00;;;-9.00;99.90;;;;;;5056070;28;20443;-69
2022/01/12 07:01:35;;;;;;;11.65;5.22;;;-9.10;99.90;;;;;;5055859;28;20109;-69
2022/01/12 07:04:00;;;;;;;12.55;4.85;;;-9.10;99.90;;;;;;5056095;28;20100;-69
2022/01/12 07:06:27;;;;;;;10.50;4.60;;;-9.20;99.90;;;;;;5056158;28;20032;-69
2022/01/12 07:08:52;;;;;;;13.02;4.82;;;-9.10;99.90;;;;;;5055824;28;20021;-69
2022/01/12 07:11:18;;;;;;;10.60;4.70;;;-9.10;99.90;;;;;;5055830;28;20078;-69
2022/01/12 07:13:44;;;;;;;11.88;6.20;;;-9.10;99.90;;;;;;5055394;28;20028;-69
2022/01/12 07:16:11;;;;;;;15.50;5.32;;;-9.20;99.90;;;;;;5055415;28;20029;-69
2022/01/12 07:18:37;;;;;;;11.32;5.47;;;-9.30;99.90;;;;;;5054385;28;20025;-69
2022/01/12 07:21:03;;;;;;;11.20;5.78;;;-9.20;99.90;;;;;;5056109;28;20047;-69
2022/01/12 07:23:29;;;;;;;20.42;8.45;;;-9.20;99.90;;;;;;5055638;28;20474;-69
2022/01/12 07:25:54;;;;;;;28.00;13.30;;;-9.20;99.90;;;;;;5055522;28;20025;-69
2022/01/12 07:28:21;;;;;;;24.67;10.55;;;-9.20;99.90;;;;;;5055476;28;20033;-69
2022/01/12 07:30:47;;;;;;;23.70;9.90;;;-9.20;99.90;;;;;;5055511;28;20376;-69
2022/01/12 07:33:13;;;;;;;22.17;12.80;;;-9.20;99.90;;;;;;5055216;28;20058;-70
2022/01/12 07:35:40;;;;;;;19.45;10.43;;;-9.20;99.90;;;;;;5053710;28;20053;-69
2022/01/12 07:38:07;;;;;;;12.35;7.45;;;-9.20;99.90;;;;;;5055023;28;20485;-69
2022/01/12 07:40:35;;;;;;;13.63;7.10;;;-9.20;99.90;;;;;;5053651;28;20025;-69
2022/01/12 07:43:02;;;;;;;22.80;6.85;;;-9.20;99.90;;;;;;5055337;28;20024;-69
2022/01/12 07:45:28;;;;;;;16.08;5.95;;;-9.20;99.90;;;;;;5054870;28;20116;-69
2022/01/12 07:47:53;;;;;;;30.48;15.88;;;-9.10;99.90;;;;;;5055321;28;20107;-69
2022/01/12 07:50:19;;;;;;;13.57;5.60;;;-9.00;99.90;;;;;;5054825;28;20032;-69
2022/01/12 07:52:45;;;;;;;14.32;6.10;;;-9.00;99.90;;;;;;5054608;28;20025;-69
2022/01/12 07:55:11;;;;;;;17.27;9.82;;;-9.10;99.90;;;;;;5054611;28;20092;-69
2022/01/12 07:57:37;;;;;;;10.63;6.82;;;-9.20;99.90;;;;;;5054767;28;20021;-69
2022/01/12 08:00:05;;;;;;;11.25;5.90;;;-9.30;99.90;;;;;;5054666;28;20032;-69
2022/01/12 08:02:31;;;;;;;9.13;4.03;;;-9.40;99.90;;;;;;5054335;28;20083;-69
2022/01/12 08:04:56;;;;;;;9.90;3.72;;;-9.40;99.90;;;;;;5054560;28;20050;-69
2022/01/12 08:07:22;;;;;;;9.25;4.10;;;-9.50;99.90;;;;;;5054358;28;20417;-69
2022/01/12 08:09:48;;;;;;;9.73;3.65;;;-9.50;99.90;;;;;;5054490;28;20029;-69
2022/01/12 08:12:14;;;;;;;9.73;3.90;;;-9.40;99.90;;;;;;5054194;28;20028;-69
2022/01/12 08:14:39;;;;;;;6.85;3.20;;;-9.40;99.90;;;;;;5052834;28;20017;-69
2022/01/12 08:17:05;;;;;;;9.45;3.58;;;-9.30;99.90;;;;;;5054510;28;20500;-69
2022/01/12 08:19:35;;;;;;;11.07;4.70;;;-9.30;99.90;;;;;;5054339;28;20056;-69
2022/01/12 08:22:01;;;;;;;11.30;5.22;;;-9.30;99.90;;;;;;5054273;28;20021;-70
2022/01/12 08:24:27;;;;;;;16.20;5.25;;;-9.20;99.90;;;;;;5053511;28;20044;-69
2022/01/12 08:26:52;;;;;;;12.88;5.70;;;-9.10;99.90;;;;;;5054327;28;20024;-69
2022/01/12 08:29:18;;;;;;;14.95;5.22;;;-9.10;99.90;;;;;;5053927;28;20029;-69
2022/01/12 08:31:45;;;;;;;12.90;6.32;;;-9.10;99.90;;;;;;5053874;28;20053;-70
2022/01/12 08:34:11;;;;;;;13.50;6.07;;;-9.00;99.90;;;;;;5053851;28;20075;-69
2022/01/12 08:36:41;;;;;;;17.45;6.65;;;-9.00;99.90;;;;;;5053835;28;20032;-69
2022/01/12 08:39:08;;;;;;;15.45;5.65;;;-8.90;99.90;;;;;;5053791;28;20059;-69
2022/01/12 08:41:35;;;;;;;10.43;4.65;;;-8.90;99.90;;;;;;5053906;28;20050;-70
2022/01/12 08:44:02;;;;;;;9.45;4.80;;;-8.80;99.90;;;;;;5053731;28;20125;-69
2022/01/12 08:46:28;;;;;;;11.38;4.28;;;-8.80;99.90;;;;;;5053561;28;20043;-69
2022/01/12 08:48:53;;;;;;;18.15;7.75;;;-8.80;99.90;;;;;;5053445;28;20033;-69
2022/01/12 08:51:19;;;;;;;16.67;6.72;;;-8.70;99.90;;;;;;5053603;28;20021;-69
2022/01/12 08:53:45;;;;;;;17.23;7.70;;;-8.70;99.90;;;;;;5053405;28;20417;-69
2022/01/12 08:56:11;;;;;;;14.43;6.50;;;-8.50;99.90;;;;;;5054188;28;20051;-69
2022/01/12 08:58:37;;;;;;;15.50;6.25;;;-8.40;99.90;;;;;;5053507;28;20099;-69
2022/01/12 09:01:04;;;;;;;17.10;6.38;;;-8.30;99.90;;;;;;5053543;28;20104;-69
2022/01/12 09:03:33;;;;;;;17.90;6.03;;;-8.30;99.90;;;;;;5053417;28;20048;-69
2022/01/12 09:05:58;;;;;;;19.38;6.68;;;-8.30;99.90;;;;;;5053345;28;20107;-69
2022/01/12 09:08:24;;;;;;;23.23;9.90;;;-8.30;99.90;;;;;;5054164;28;20100;-69
2022/01/12 09:10:50;;;;;;;16.75;5.40;;;-8.30;99.90;;;;;;5053353;28;20028;-69
2022/01/12 09:13:16;;;;;;;19.73;5.90;;;-8.30;99.90;;;;;;5053549;28;20033;-69
2022/01/12 09:15:41;;;;;;;33.28;6.25;;;-8.20;99.90;;;;;;5053905;28;20074;-70
2022/01/12 09:18:07;;;;;;;13.55;5.35;;;-8.20;99.90;;;;;;5052009;28;20056;-69
2022/01/12 09:20:33;;;;;;;20.80;5.57;;;-8.10;99.90;;;;;;5053283;28;20029;-70
2022/01/12 09:22:59;;;;;;;17.75;7.82;;;-8.00;99.90;;;;;;5053478;28;20025;-70
2022/01/12 09:25:25;;;;;;;17.80;5.78;;;-7.90;99.90;;;;;;5051899;28;20040;-69
2022/01/12 09:27:51;;;;;;;21.17;6.47;;;-7.80;99.90;;;;;;5053444;28;20021;-69
2022/01/12 09:30:22;;;;;;;15.77;6.55;;;-7.70;99.90;;;;;;5053368;28;20104;-69
2022/01/12 09:32:48;;;;;;;16.55;6.18;;;-7.60;99.90;;;;;;5053426;28;20045;-70
2022/01/12 09:35:14;;;;;;;16.95;5.45;;;-7.60;99.90;;;;;;5051774;28;20032;-69
2022/01/12 09:37:40;;;;;;;12.55;5.50;;;-7.50;99.90;;;;;;5056312;28;20051;-70
2022/01/12 09:40:07;;;;;;;16.88;5.65;;;-7.40;99.90;;;;;;5057428;28;20529;-69
2022/01/12 09:42:33;;;;;;;25.00;6.05;;;-7.40;99.90;;;;;;5057188;28;20091;-69
2022/01/12 09:45:00;;;;;;;17.92;7.00;;;-7.30;99.90;;;;;;5057698;28;20025;-70
2022/01/12 09:47:25;;;;;;;21.10;6.88;;;-7.30;99.90;;;;;;5057103;28;20049;-70
2022/01/12 09:49:51;;;;;;;28.80;7.32;;;-7.20;99.90;;;;;;5057377;28;20053;-70
2022/01/12 09:52:17;;;;;;;23.55;7.32;;;-7.20;99.90;;;;;;5057067;28;20477;-70
2022/01/12 09:54:43;;;;;;;15.30;6.03;;;-7.10;99.90;;;;;;5057694;28;20440;-70
2022/01/12 09:57:09;;;;;;;11.55;5.55;;;-7.00;99.90;;;;;;5056941;28;20025;-70
2022/01/12 09:59:35;;;;;;;22.67;6.28;;;-6.90;99.90;;;;;;5055609;28;20151;-70
2022/01/12 10:02:02;;;;;;;25.50;7.15;;;-6.80;99.90;;;;;;5056773;28;20029;-70
2022/01/12 10:04:30;;;;;;;29.25;7.65;;;-6.70;99.90;;;;;;5057378;28;20028;-69
2022/01/12 10:07:03;;;;;;;21.52;6.57;;;-6.70;99.90;;;;;;5056537;28;20035;-69
2022/01/12 10:09:37;;;;;;;22.50;6.93;;;-6.60;99.90;;;;;;5056735;28;20104;-69
2022/01/12 10:12:05;;;;;;;15.27;6.45;;;-6.50;99.90;;;;;;5056581;28;20031;-69
2022/01/12 10:14:38;;;;;;;29.50;6.90;;;-6.40;99.90;;;;;;5056348;28;20021;-69
2022/01/12 10:17:04;;;;;;;22.25;7.22;;;-6.30;99.90;;;;;;5056580;28;20441;-69
2022/01/12 10:19:31;;;;;;;17.48;6.10;;;-6.30;99.90;;;;;;5056623;28;20029;-69
2022/01/12 10:21:59;;;;;;;22.05;6.53;;;-6.20;99.90;;;;;;5055204;28;20116;-70
2022/01/12 10:24:25;;;;;;;15.85;6.13;;;-6.10;99.90;;;;;;5056456;28;20040;-70
2022/01/12 10:26:52;;;;;;;18.75;6.03;;;-6.00;99.90;;;;;;5056575;28;20048;-70
2022/01/12 10:29:23;;;;;;;12.82;6.05;;;-6.00;99.90;;;;;;5056620;28;20017;-70
2022/01/12 10:32:03;;;;;;;11.00;5.22;;;-5.90;99.90;;;;;;5056688;28;20108;-70
2022/01/12 10:34:39;;;;;;;18.38;6.75;;;-5.80;99.90;;;;;;5056777;28;20021;-70
2022/01/12 10:37:10;;;;;;;11.35;5.40;;;-5.70;99.90;;;;;;5056541;28;20017;-70
2022/01/12 10:39:41;;;;;;;;;;;-5.60;99.90;;;;;;5055451;28;20409;-70
2022/01/12 10:42:11;;;;;;;20.50;5.97;;;-5.50;99.90;;;;;;5056272;28;19912;-70
2022/01/12 10:44:39;;;;;;;14.43;6.00;;;-5.50;99.90;;;;;;5056371;28;20029;-70
2022/01/12 10:47:13;;;;;;;15.05;5.90;;;-5.40;99.90;;;;;;5055922;28;20040;-70
2022/01/12 10:49:42;;;;;;;13.65;6.30;;;-5.30;99.90;;;;;;5054702;28;20021;-70
2022/01/12 10:52:14;;;;;;;14.90;5.18;;;-5.10;99.90;;;;;;5054792;28;20067;-70
2022/01/12 10:54:50;;;;;;;13.60;5.88;;;-5.00;99.90;;;;;;5055985;28;20017;-70
2022/01/12 10:57:31;;;;;;;15.48;6.05;;;-4.90;99.90;;;;;;5054780;28;20035;-70
2022/01/12 11:00:09;;;;;;;13.30;5.35;;;-4.80;99.90;;;;;;5055868;28;20549;-70
2022/01/12 11:02:39;;;;;;;14.18;5.93;;;-4.70;99.90;;;;;;5055752;28;20025;-70
2022/01/12 11:05:07;;;;;;;12.23;6.00;;;-4.60;99.90;;;;;;5056424;28;20025;-70
2022/01/12 11:07:34;;;;;;;16.58;6.70;;;-4.50;99.90;;;;;;5055719;28;20017;-70
2022/01/12 11:10:02;;;;;;;23.25;8.10;;;-4.40;99.90;;;;;;5055667;28;20032;-70
2022/01/12 11:12:28;;;;;;;24.55;8.52;;;-4.40;99.90;;;;;;5055462;28;20021;-70
2022/01/12 11:14:54;;;;;;;25.05;7.88;;;-4.40;99.90;;;;;;5055430;28;20053;-70
2022/01/12 11:17:20;;;;;;;23.25;9.00;;;-4.30;99.90;;;;;;5055437;28;20060;-70
2022/01/12 11:20:05;;;;;;;19.45;7.07;;;-4.30;99.90;;;;;;5055304;28;20028;-70
2022/01/12 11:22:43;;;;;;;22.00;8.77;;;-4.20;99.90;;;;;;5055625;28;20108;-70
2022/01/12 11:25:48;;;;;;;28.20;10.05;;;-4.10;99.90;;;;;;5055157;28;20107;-70
2022/01/12 11:28:26;;;;;;;26.60;11.27;;;-4.00;99.90;;;;;;4994003;28;20471;-70
2022/01/12 11:30:53;;;;;;;27.02;11.48;;;-3.90;99.90;;;;;;5046803;28;20040;-70
2022/01/12 11:33:21;;;;;;;36.10;11.00;;;-3.90;99.90;;;;;;5055018;28;20021;-70
2022/01/12 11:35:52;;;;;;;22.85;7.95;;;-3.80;99.90;;;;;;5054035;28;20083;-70
2022/01/12 11:38:36;;;;;;;20.30;7.25;;;-3.80;99.90;;;;;;5055682;28;20135;-70
2022/01/12 11:41:13;;;;;;;16.60;6.32;;;-3.80;99.90;;;;;;5055581;28;20025;-70
2022/01/12 11:43:48;;;;;;;12.88;5.90;;;-3.70;99.90;;;;;;5053531;28;20036;-70
2022/01/12 11:46:20;;;;;;;9.45;4.60;;;-3.60;99.90;;;;;;5055484;28;20373;-70
2022/01/12 11:48:50;;;;;;;18.33;6.90;;;-3.60;99.90;;;;;;5053527;28;20055;-70
2022/01/12 11:51:18;;;;;;;15.55;6.25;;;-3.60;99.90;;;;;;5055064;28;20033;-70
2022/01/12 11:53:55;;;;;;;16.17;5.88;;;-3.50;99.90;;;;;;5054627;28;20107;-70
2022/01/12 11:56:26;;;;;;;17.95;5.03;;;-3.40;99.90;;;;;;5054667;28;20547;-70
2022/01/12 11:59:11;;;;;;;12.13;5.32;;;-3.30;99.90;;;;;;5052562;28;20120;-70
2022/01/12 12:01:48;;;;;;;11.13;5.13;;;-3.30;99.90;;;;;;5054768;28;20025;-71
2022/01/12 12:04:31;;;;;;;11.07;4.88;;;-3.10;99.90;;;;;;5054639;28;20024;-70
2022/01/12 12:07:06;;;;;;;16.67;6.47;;;-3.00;99.90;;;;;;5054735;28;20057;-70
2022/01/12 12:09:40;;;;;;;12.77;5.60;;;-2.80;99.90;;;;;;5054667;28;20465;-71
2022/01/12 12:12:21;;;;;;;23.95;7.25;;;-2.70;99.90;;;;;;5054583;28;20021;-71
2022/01/12 12:14:49;;;;;;;13.00;6.13;;;-2.60;99.90;;;;;;5054331;28;20021;-71
2022/01/12 12:17:18;;;;;;;17.50;6.72;;;-2.50;99.90;;;;;;5054326;28;20021;-71
2022/01/12 12:19:46;;;;;;;10.57;5.53;;;-2.40;99.90;;;;;;5054188;28;20036;-71
2022/01/12 12:22:20;;;;;;;17.20;6.20;;;-2.30;99.90;;;;;;5053078;28;20102;-71
2022/01/12 12:24:52;;;;;;;13.52;5.38;;;-2.20;99.90;;;;;;5054079;28;20040;-71
2022/01/12 12:27:21;;;;;;;11.25;5.70;;;-2.30;99.90;;;;;;5072508;28;20051;-71
2022/01/12 12:29:48;;;;;;;15.40;6.68;;;-2.20;99.90;;;;;;5068904;28;20039;-73
2022/01/12 12:32:35;;;;;;;22.88;8.15;;;-2.20;99.90;;;;;;5064784;28;20021;-71
2022/01/12 12:35:13;;;;;;;18.52;8.85;;;-2.20;99.90;;;;;;5053538;28;20033;-71
2022/01/12 12:37:44;;;;;;;17.27;7.65;;;-2.10;99.90;;;;;;5054076;28;20028;-71
2022/01/12 12:40:17;;;;;;;15.50;7.05;;;-2.10;99.90;;;;;;5076962;28;20016;-71
2022/01/12 12:42:43;;;;;;;15.82;7.32;;;-2.00;99.90;;;;;;5094188;28;20052;-71
2022/01/12 12:45:09;;;;;;;20.45;8.00;;;-2.00;99.90;;;;;;5094065;28;20492;-71
2022/01/12 12:47:35;;;;;;;12.88;7.15;;;-1.90;99.90;;;;;;5094321;28;20028;-71
2022/01/12 12:50:09;;;;;;;17.00;8.02;;;-1.90;99.90;;;;;;5094157;28;20020;-71
2022/01/12 12:52:37;;;;;;;22.30;8.65;;;-1.90;99.90;;;;;;5094052;28;20027;-71
2022/01/12 12:55:14;;;;;;;19.13;8.90;;;-1.90;99.90;;;;;;5094088;28;20035;-71
2022/01/12 12:57:53;;;;;;;30.00;12.00;;;-1.80;99.90;;;;;;5094368;28;20368;-71
2022/01/12 13:00:23;;;;;;;30.48;11.63;;;-1.70;99.90;;;;;;5094085;28;20020;-71
2022/01/12 13:02:53;;;;;;;22.15;8.73;;;-1.60;99.90;;;;;;5093668;28;20575;-71
2022/01/12 13:05:21;;;;;;;18.80;8.15;;;-1.60;99.90;;;;;;5092592;28;20039;-71
2022/01/12 13:07:48;;;;;;;16.63;7.40;;;-1.50;99.90;;;;;;5093700;28;20028;-71
2022/01/12 13:10:18;;;;;;;16.60;6.15;;;-1.40;99.90;;;;;;5093410;28;20164;-71
2022/01/12 13:12:53;;;;;;;13.32;5.88;;;-1.40;99.90;;;;;;5093578;28;20031;-71
2022/01/12 13:15:41;;;;;;;14.15;6.55;;;-1.30;99.90;;;;;;5093923;28;20136;-71
2022/01/12 13:18:15;;;;;;;13.55;6.20;;;-1.30;99.90;;;;;;5094179;28;20150;-72
2022/01/12 13:23:37;;;;;;;20.40;9.80;;;-1.20;99.90;;;;;;5093444;28;20043;-71
2022/01/12 13:26:07;;;;;;;18.88;10.00;;;-1.20;99.90;;;;;;5093463;28;20115;-72
2022/01/12 13:28:35;;;;;;;15.68;6.97;;;-1.10;99.90;;;;;;5093370;28;20059;-72
2022/01/12 13:31:03;;;;;;;13.48;6.95;;;-1.10;99.90;;;;;;5093488;28;20016;-72
2022/01/12 13:33:41;;;;;;;13.68;6.82;;;-1.00;99.90;;;;;;5093327;28;20020;-72
2022/01/12 13:36:14;;;;;;;16.40;7.75;;;-1.00;99.90;;;;;;5093423;28;20051;-72
2022/01/12 13:38:42;;;;;;;14.73;7.38;;;-1.00;99.90;;;;;;5092035;28;20499;-72
2022/01/12 13:41:15;;;;;;;23.05;8.90;;;-1.10;99.90;;;;;;5093580;28;20025;-72
2022/01/12 13:43:43;;;;;;;15.57;8.23;;;-1.20;99.90;;;;;;5074132;28;20439;-72
2022/01/12 13:46:14;;;;;;;18.27;8.65;;;-1.30;99.90;;;;;;5071794;28;20024;-72
2022/01/12 13:48:53;;;;;;;17.63;8.98;;;-1.40;99.90;;;;;;5073541;28;20406;-72
2022/01/12 13:51:27;;;;;;;19.48;9.70;;;-1.40;99.90;;;;;;5073056;28;20028;-71
2022/01/12 13:54:04;;;;;;;25.95;10.57;;;-1.40;99.90;;;;;;5072032;28;20384;-71
2022/01/12 13:56:35;;;;;;;24.85;9.20;;;-1.50;99.90;;;;;;5071703;28;20024;-71
2022/01/12 13:59:00;;;;;;;20.75;8.98;;;-1.50;99.90;;;;;;5073344;28;20074;-71
2022/01/12 14:01:31;;;;;;;28.20;9.43;;;-1.60;99.90;;;;;;5073340;28;20033;-72
2022/01/12 14:04:07;;;;;;;16.90;7.50;;;-1.60;99.90;;;;;;5071717;28;20024;-71
2022/01/12 14:06:41;;;;;;;16.70;7.45;;;-1.70;99.90;;;;;;5071771;28;20463;-71
2022/01/12 14:09:48;;;;;;;14.52;6.65;;;-1.70;99.90;;;;;;5072883;28;20025;-70